sensor_id;sensor_type;location;lat;lon;timestamp;temperature;humidity
26575;DHT22;67165;50.256;10.978;2023-05-23T00:01:53;17.70;98.00
26575;DHT22;67165;50.256;10.978;2023-05-23T00:04:19;17.70;98.00
26575;DHT22;67165;50.256;10.978;2023-05-23T00:06:45;17.80;98.00
26575;DHT22;67165;50.256;10.978;2023-05-23T00:09:15;17.80;98.00
26575;DHT22;67165;50.256;10.978;2023-05-23T00:11:41;17.80;98.00
26575;DHT22;67165;50.256;10.978;2023-05-23T00:14:18;17.80;98.00
26575;DHT22;67165;50.256;10.978;2023-05-23T00:16:45;17.80;98.00
26575;DHT22;67165;50.256;10.978;2023-05-23T00:19:14;17.80;98.00
26575;DHT22;67165;50.256;10.978;2023-05-23T00:21:45;17.80;98.00
26575;DHT22;67165;50.256;10.978;2023-05-23T00:24:15;17.70;98.00
26575;DHT22;67165;50.256;10.978;2023-05-23T00:26:46;17.70;98.00
26575;DHT22;67165;50.256;10.978;2023-05-23T00:29:11;17.70;98.00
26575;DHT22;67165;50.256;10.978;2023-05-23T00:31:41;17.70;98.00
26575;DHT22;67165;50.256;10.978;2023-05-23T00:34:11;17.70;98.00
26575;DHT22;67165;50.256;10.978;2023-05-23T00:36:37;17.70;98.00
26575;DHT22;67165;50.256;10.978;2023-05-23T00:39:03;17.60;98.00
26575;DHT22;67165;50.256;10.978;2023-05-23T00:41:29;17.60;98.00
26575;DHT22;67165;50.256;10.978;2023-05-23T00:43:56;17.60;98.00
26575;DHT22;67165;50.256;10.978;2023-05-23T00:46:25;17.60;98.00
26575;DHT22;67165;50.256;10.978;2023-05-23T00:48:51;17.60;98.00
26575;DHT22;67165;50.256;10.978;2023-05-23T00:51:17;17.50;98.00
26575;DHT22;67165;50.256;10.978;2023-05-23T00:53:43;17.50;98.00
26575;DHT22;67165;50.256;10.978;2023-05-23T00:56:08;17.50;98.00
26575;DHT22;67165;50.256;10.978;2023-05-23T00:58:34;17.50;98.00
26575;DHT22;67165;50.256;10.978;2023-05-23T01:01:00;17.40;98.00
26575;DHT22;67165;50.256;10.978;2023-05-23T01:03:26;17.40;98.00
26575;DHT22;67165;50.256;10.978;2023-05-23T01:05:55;17.40;98.00
26575;DHT22;67165;50.256;10.978;2023-05-23T01:08:21;17.30;98.00
26575;DHT22;67165;50.256;10.978;2023-05-23T01:10:47;17.30;98.00
26575;DHT22;67165;50.256;10.978;2023-05-23T01:13:36;17.20;98.00
26575;DHT22;67165;50.256;10.978;2023-05-23T01:16:13;17.20;98.00
26575;DHT22;67165;50.256;10.978;2023-05-23T01:18:50;17.20;98.00
26575;DHT22;67165;50.256;10.978;2023-05-23T01:21:23;17.10;98.00
26575;DHT22;67165;50.256;10.978;2023-05-23T01:29:47;17.10;98.00
26575;DHT22;67165;50.256;10.978;2023-05-23T01:32:18;17.10;98.00
26575;DHT22;67165;50.256;10.978;2023-05-23T01:34:44;17.10;98.00
26575;DHT22;67165;50.256;10.978;2023-05-23T01:37:11;17.20;98.00
26575;DHT22;67165;50.256;10.978;2023-05-23T01:39:39;17.20;98.00
26575;DHT22;67165;50.256;10.978;2023-05-23T01:42:05;17.10;98.00
26575;DHT22;67165;50.256;10.978;2023-05-23T01:44:33;17.10;98.00
26575;DHT22;67165;50.256;10.978;2023-05-23T01:47:01;17.10;98.00
26575;DHT22;67165;50.256;10.978;2023-05-23T01:49:28;17.00;98.00
26575;DHT22;67165;50.256;10.978;2023-05-23T01:51:55;17.00;98.00
26575;DHT22;67165;50.256;10.978;2023-05-23T01:54:21;17.00;98.00
26575;DHT22;67165;50.256;10.978;2023-05-23T01:56:48;17.00;98.00
26575;DHT22;67165;50.256;10.978;2023-05-23T01:59:15;16.90;98.00
26575;DHT22;67165;50.256;10.978;2023-05-23T02:01:41;16.90;98.00
26575;DHT22;67165;50.256;10.978;2023-05-23T02:04:07;16.90;98.00
26575;DHT22;67165;50.256;10.978;2023-05-23T02:06:33;16.90;98.00
26575;DHT22;67165;50.256;10.978;2023-05-23T02:08:58;16.90;98.00
26575;DHT22;67165;50.256;10.978;2023-05-23T02:11:24;16.90;98.00
26575;DHT22;67165;50.256;10.978;2023-05-23T02:13:51;16.90;98.00
26575;DHT22;67165;50.256;10.978;2023-05-23T02:16:16;16.90;98.00
26575;DHT22;67165;50.256;10.978;2023-05-23T02:18:42;16.90;98.00
26575;DHT22;67165;50.256;10.978;2023-05-23T02:21:10;16.90;98.00
26575;DHT22;67165;50.256;10.978;2023-05-23T02:23:37;16.90;98.00
26575;DHT22;67165;50.256;10.978;2023-05-23T02:26:02;16.80;98.00
26575;DHT22;67165;50.256;10.978;2023-05-23T02:28:28;16.80;98.00
26575;DHT22;67165;50.256;10.978;2023-05-23T02:30:54;16.80;98.00
26575;DHT22;67165;50.256;10.978;2023-05-23T02:33:19;16.80;98.00
26575;DHT22;67165;50.256;10.978;2023-05-23T02:35:46;16.80;98.00
26575;DHT22;67165;50.256;10.978;2023-05-23T02:38:12;16.80;98.00
26575;DHT22;67165;50.256;10.978;2023-05-23T02:40:37;16.80;98.00
26575;DHT22;67165;50.256;10.978;2023-05-23T02:43:03;16.90;98.00
26575;DHT22;67165;50.256;10.978;2023-05-23T02:45:29;16.90;98.00
26575;DHT22;67165;50.256;10.978;2023-05-23T02:47:54;16.90;98.00
26575;DHT22;67165;50.256;10.978;2023-05-23T02:50:20;16.80;98.00
26575;DHT22;67165;50.256;10.978;2023-05-23T02:52:45;16.80;98.00
26575;DHT22;67165;50.256;10.978;2023-05-23T02:55:11;16.90;98.00
26575;DHT22;67165;50.256;10.978;2023-05-23T02:57:37;16.90;98.00
26575;DHT22;67165;50.256;10.978;2023-05-23T03:00:02;16.80;98.00
26575;DHT22;67165;50.256;10.978;2023-05-23T03:02:29;16.80;98.00
26575;DHT22;67165;50.256;10.978;2023-05-23T03:04:55;16.80;98.00
26575;DHT22;67165;50.256;10.978;2023-05-23T03:07:21;16.80;98.00
26575;DHT22;67165;50.256;10.978;2023-05-23T03:09:47;16.70;98.00
26575;DHT22;67165;50.256;10.978;2023-05-23T03:12:13;16.80;98.00
26575;DHT22;67165;50.256;10.978;2023-05-23T03:14:38;16.70;98.00
26575;DHT22;67165;50.256;10.978;2023-05-23T03:17:04;16.70;98.00
26575;DHT22;67165;50.256;10.978;2023-05-23T03:19:30;16.70;98.00
26575;DHT22;67165;50.256;10.978;2023-05-23T03:21:55;16.60;98.00
26575;DHT22;67165;50.256;10.978;2023-05-23T03:24:21;16.60;98.00
26575;DHT22;67165;50.256;10.978;2023-05-23T03:26:46;16.70;98.00
26575;DHT22;67165;50.256;10.978;2023-05-23T03:29:12;16.70;98.00
26575;DHT22;67165;50.256;10.978;2023-05-23T03:31:38;16.70;98.00
26575;DHT22;67165;50.256;10.978;2023-05-23T03:34:03;16.70;98.00
26575;DHT22;67165;50.256;10.978;2023-05-23T03:36:32;16.80;98.00
26575;DHT22;67165;50.256;10.978;2023-05-23T03:38:58;16.70;98.00
26575;DHT22;67165;50.256;10.978;2023-05-23T03:41:24;16.60;98.00
26575;DHT22;67165;50.256;10.978;2023-05-23T03:43:51;16.60;98.00
26575;DHT22;67165;50.256;10.978;2023-05-23T03:46:16;16.60;98.00
26575;DHT22;67165;50.256;10.978;2023-05-23T03:48:42;16.60;98.00
26575;DHT22;67165;50.256;10.978;2023-05-23T03:51:07;16.60;98.00
26575;DHT22;67165;50.256;10.978;2023-05-23T03:53:33;16.70;98.00
26575;DHT22;67165;50.256;10.978;2023-05-23T03:55:59;16.80;98.00
26575;DHT22;67165;50.256;10.978;2023-05-23T03:58:24;16.80;98.00
26575;DHT22;67165;50.256;10.978;2023-05-23T04:00:50;16.70;98.00
26575;DHT22;67165;50.256;10.978;2023-05-23T04:03:17;16.70;98.00
26575;DHT22;67165;50.256;10.978;2023-05-23T04:05:43;16.70;98.00
26575;DHT22;67165;50.256;10.978;2023-05-23T04:08:08;16.70;98.00
26575;DHT22;67165;50.256;10.978;2023-05-23T04:10:34;16.70;98.00
26575;DHT22;67165;50.256;10.978;2023-05-23T04:13:00;16.80;98.00
26575;DHT22;67165;50.256;10.978;2023-05-23T04:15:25;16.70;98.00
26575;DHT22;67165;50.256;10.978;2023-05-23T04:17:52;16.80;98.00
26575;DHT22;67165;50.256;10.978;2023-05-23T04:20:18;16.70;98.00
26575;DHT22;67165;50.256;10.978;2023-05-23T04:22:44;16.70;98.00
26575;DHT22;67165;50.256;10.978;2023-05-23T04:25:09;16.80;98.00
26575;DHT22;67165;50.256;10.978;2023-05-23T04:27:36;16.80;98.00
26575;DHT22;67165;50.256;10.978;2023-05-23T04:30:05;16.80;98.00
26575;DHT22;67165;50.256;10.978;2023-05-23T04:32:33;16.80;98.00
26575;DHT22;67165;50.256;10.978;2023-05-23T04:34:59;16.90;98.00
26575;DHT22;67165;50.256;10.978;2023-05-23T04:37:26;16.80;98.00
26575;DHT22;67165;50.256;10.978;2023-05-23T04:39:52;16.90;98.00
26575;DHT22;67165;50.256;10.978;2023-05-23T04:42:18;16.90;98.00
26575;DHT22;67165;50.256;10.978;2023-05-23T04:44:50;16.90;98.00
26575;DHT22;67165;50.256;10.978;2023-05-23T04:47:16;16.90;98.00
26575;DHT22;67165;50.256;10.978;2023-05-23T04:49:42;16.90;98.00
26575;DHT22;67165;50.256;10.978;2023-05-23T04:52:07;17.00;98.00
26575;DHT22;67165;50.256;10.978;2023-05-23T04:54:34;17.00;98.00
26575;DHT22;67165;50.256;10.978;2023-05-23T04:57:00;17.10;98.00
26575;DHT22;67165;50.256;10.978;2023-05-23T04:59:26;17.10;98.00
26575;DHT22;67165;50.256;10.978;2023-05-23T05:01:51;17.20;98.00
26575;DHT22;67165;50.256;10.978;2023-05-23T05:04:17;17.50;98.00
26575;DHT22;67165;50.256;10.978;2023-05-23T05:06:43;17.80;98.00
26575;DHT22;67165;50.256;10.978;2023-05-23T05:09:08;18.10;98.00
26575;DHT22;67165;50.256;10.978;2023-05-23T05:11:34;18.20;98.00
26575;DHT22;67165;50.256;10.978;2023-05-23T05:14:00;18.10;98.00
26575;DHT22;67165;50.256;10.978;2023-05-23T05:16:25;18.10;98.00
26575;DHT22;67165;50.256;10.978;2023-05-23T05:18:51;18.30;98.00
26575;DHT22;67165;50.256;10.978;2023-05-23T05:21:17;18.70;98.00
26575;DHT22;67165;50.256;10.978;2023-05-23T05:23:42;18.90;98.00
26575;DHT22;67165;50.256;10.978;2023-05-23T05:26:08;19.30;98.00
26575;DHT22;67165;50.256;10.978;2023-05-23T05:28:34;19.70;98.00
26575;DHT22;67165;50.256;10.978;2023-05-23T05:30:59;20.00;98.00
26575;DHT22;67165;50.256;10.978;2023-05-23T05:33:29;20.20;98.00
26575;DHT22;67165;50.256;10.978;2023-05-23T05:36:01;20.20;98.00
26575;DHT22;67165;50.256;10.978;2023-05-23T05:38:27;20.10;98.00
26575;DHT22;67165;50.256;10.978;2023-05-23T05:40:53;20.00;98.00
26575;DHT22;67165;50.256;10.978;2023-05-23T05:43:18;19.90;98.00
26575;DHT22;67165;50.256;10.978;2023-05-23T05:45:44;19.70;98.00
26575;DHT22;67165;50.256;10.978;2023-05-23T05:48:09;19.40;98.00
26575;DHT22;67165;50.256;10.978;2023-05-23T05:50:36;19.10;98.00
26575;DHT22;67165;50.256;10.978;2023-05-23T05:53:01;18.80;98.00
26575;DHT22;67165;50.256;10.978;2023-05-23T05:55:28;18.70;98.00
26575;DHT22;67165;50.256;10.978;2023-05-23T05:57:53;18.60;98.00
26575;DHT22;67165;50.256;10.978;2023-05-23T06:00:19;18.50;98.00
26575;DHT22;67165;50.256;10.978;2023-05-23T06:02:46;18.40;98.00
26575;DHT22;67165;50.256;10.978;2023-05-23T06:05:12;18.30;98.00
26575;DHT22;67165;50.256;10.978;2023-05-23T06:07:41;18.20;98.00
26575;DHT22;67165;50.256;10.978;2023-05-23T06:10:07;18.10;98.00
26575;DHT22;67165;50.256;10.978;2023-05-23T06:12:34;18.20;98.00
26575;DHT22;67165;50.256;10.978;2023-05-23T06:15:00;18.10;98.00
26575;DHT22;67165;50.256;10.978;2023-05-23T06:17:27;18.10;98.00
26575;DHT22;67165;50.256;10.978;2023-05-23T06:19:53;18.30;98.00
26575;DHT22;67165;50.256;10.978;2023-05-23T06:22:18;18.50;98.00
26575;DHT22;67165;50.256;10.978;2023-05-23T06:24:44;18.60;98.00
26575;DHT22;67165;50.256;10.978;2023-05-23T06:27:11;18.60;98.00
26575;DHT22;67165;50.256;10.978;2023-05-23T06:29:37;18.50;98.00
26575;DHT22;67165;50.256;10.978;2023-05-23T06:32:02;18.60;98.00
26575;DHT22;67165;50.256;10.978;2023-05-23T06:34:28;18.60;98.00
26575;DHT22;67165;50.256;10.978;2023-05-23T06:36:54;18.60;98.00
26575;DHT22;67165;50.256;10.978;2023-05-23T06:39:20;18.60;98.00
26575;DHT22;67165;50.256;10.978;2023-05-23T06:41:46;18.60;98.00
26575;DHT22;67165;50.256;10.978;2023-05-23T06:44:12;18.70;98.00
26575;DHT22;67165;50.256;10.978;2023-05-23T06:46:38;18.90;98.00
26575;DHT22;67165;50.256;10.978;2023-05-23T06:49:04;19.10;98.00
26575;DHT22;67165;50.256;10.978;2023-05-23T06:51:29;19.40;98.00
26575;DHT22;67165;50.256;10.978;2023-05-23T06:53:56;19.70;98.00
26575;DHT22;67165;50.256;10.978;2023-05-23T06:56:24;19.70;98.00
26575;DHT22;67165;50.256;10.978;2023-05-23T06:58:50;19.60;98.00
26575;DHT22;67165;50.256;10.978;2023-05-23T07:01:16;19.50;98.00
26575;DHT22;67165;50.256;10.978;2023-05-23T07:03:41;19.30;98.00
26575;DHT22;67165;50.256;10.978;2023-05-23T07:06:10;19.30;98.00
26575;DHT22;67165;50.256;10.978;2023-05-23T07:08:36;19.40;98.00
26575;DHT22;67165;50.256;10.978;2023-05-23T07:11:02;19.20;98.00
26575;DHT22;67165;50.256;10.978;2023-05-23T07:13:28;19.00;98.00
26575;DHT22;67165;50.256;10.978;2023-05-23T07:15:54;18.90;98.00
26575;DHT22;67165;50.256;10.978;2023-05-23T07:18:20;18.80;98.00
26575;DHT22;67165;50.256;10.978;2023-05-23T07:20:45;18.90;98.00
26575;DHT22;67165;50.256;10.978;2023-05-23T07:23:11;18.90;98.00
26575;DHT22;67165;50.256;10.978;2023-05-23T07:25:37;19.10;98.00
26575;DHT22;67165;50.256;10.978;2023-05-23T07:28:04;19.20;98.00
26575;DHT22;67165;50.256;10.978;2023-05-23T07:30:30;19.10;98.00
26575;DHT22;67165;50.256;10.978;2023-05-23T07:32:56;18.90;98.00
26575;DHT22;67165;50.256;10.978;2023-05-23T07:35:22;18.90;98.00
26575;DHT22;67165;50.256;10.978;2023-05-23T07:37:54;18.90;98.00
26575;DHT22;67165;50.256;10.978;2023-05-23T07:40:22;18.70;98.00
26575;DHT22;67165;50.256;10.978;2023-05-23T07:42:48;18.70;98.00
26575;DHT22;67165;50.256;10.978;2023-05-23T07:45:14;18.70;98.00
26575;DHT22;67165;50.256;10.978;2023-05-23T07:47:40;18.70;98.00
26575;DHT22;67165;50.256;10.978;2023-05-23T07:50:06;18.70;98.00
26575;DHT22;67165;50.256;10.978;2023-05-23T07:52:32;18.70;98.00
26575;DHT22;67165;50.256;10.978;2023-05-23T07:54:59;18.70;98.00
26575;DHT22;67165;50.256;10.978;2023-05-23T07:57:25;18.60;98.00
26575;DHT22;67165;50.256;10.978;2023-05-23T07:59:52;18.60;98.00
26575;DHT22;67165;50.256;10.978;2023-05-23T08:02:18;18.70;98.00
26575;DHT22;67165;50.256;10.978;2023-05-23T08:04:44;18.80;98.00
26575;DHT22;67165;50.256;10.978;2023-05-23T08:07:10;18.90;98.00
26575;DHT22;67165;50.256;10.978;2023-05-23T08:09:37;18.80;98.00
26575;DHT22;67165;50.256;10.978;2023-05-23T08:12:03;18.50;98.00
26575;DHT22;67165;50.256;10.978;2023-05-23T08:14:28;18.60;98.00
26575;DHT22;67165;50.256;10.978;2023-05-23T08:16:54;18.60;98.00
26575;DHT22;67165;50.256;10.978;2023-05-23T08:19:20;18.40;98.00
26575;DHT22;67165;50.256;10.978;2023-05-23T08:21:46;18.30;98.00
26575;DHT22;67165;50.256;10.978;2023-05-23T08:24:11;18.30;98.00
26575;DHT22;67165;50.256;10.978;2023-05-23T08:26:38;18.20;98.00
26575;DHT22;67165;50.256;10.978;2023-05-23T08:29:04;18.00;98.00
26575;DHT22;67165;50.256;10.978;2023-05-23T08:31:31;17.90;98.00
26575;DHT22;67165;50.256;10.978;2023-05-23T08:33:57;17.90;98.00
26575;DHT22;67165;50.256;10.978;2023-05-23T08:36:23;17.80;98.00
26575;DHT22;67165;50.256;10.978;2023-05-23T08:38:49;17.90;98.00
26575;DHT22;67165;50.256;10.978;2023-05-23T08:41:19;18.10;98.00
26575;DHT22;67165;50.256;10.978;2023-05-23T08:43:45;18.30;98.00
26575;DHT22;67165;50.256;10.978;2023-05-23T08:46:12;18.60;98.00
26575;DHT22;67165;50.256;10.978;2023-05-23T08:48:38;18.60;98.00
26575;DHT22;67165;50.256;10.978;2023-05-23T08:51:04;18.50;98.00
26575;DHT22;67165;50.256;10.978;2023-05-23T08:53:32;18.60;98.00
26575;DHT22;67165;50.256;10.978;2023-05-23T08:56:02;18.60;98.00
26575;DHT22;67165;50.256;10.978;2023-05-23T08:58:31;18.70;98.00
26575;DHT22;67165;50.256;10.978;2023-05-23T09:00:58;18.70;98.00
26575;DHT22;67165;50.256;10.978;2023-05-23T09:03:27;18.60;98.00
26575;DHT22;67165;50.256;10.978;2023-05-23T09:05:54;18.60;98.00
26575;DHT22;67165;50.256;10.978;2023-05-23T09:08:20;18.50;98.00
26575;DHT22;67165;50.256;10.978;2023-05-23T09:10:49;18.40;98.00
26575;DHT22;67165;50.256;10.978;2023-05-23T09:13:16;18.30;98.00
26575;DHT22;67165;50.256;10.978;2023-05-23T09:18:26;18.30;98.00
26575;DHT22;67165;50.256;10.978;2023-05-23T09:20:57;18.40;98.00
26575;DHT22;67165;50.256;10.978;2023-05-23T09:23:23;18.30;98.00
26575;DHT22;67165;50.256;10.978;2023-05-23T09:25:49;18.30;98.00
26575;DHT22;67165;50.256;10.978;2023-05-23T09:28:14;18.50;98.00
26575;DHT22;67165;50.256;10.978;2023-05-23T09:30:40;18.70;98.00
26575;DHT22;67165;50.256;10.978;2023-05-23T09:33:06;18.80;98.00
26575;DHT22;67165;50.256;10.978;2023-05-23T09:35:32;18.90;98.00
26575;DHT22;67165;50.256;10.978;2023-05-23T09:37:58;18.90;98.00
26575;DHT22;67165;50.256;10.978;2023-05-23T09:40:29;18.90;98.00
26575;DHT22;67165;50.256;10.978;2023-05-23T09:43:03;18.90;98.00
26575;DHT22;67165;50.256;10.978;2023-05-23T09:45:31;19.00;98.00
26575;DHT22;67165;50.256;10.978;2023-05-23T09:47:57;19.00;98.00
26575;DHT22;67165;50.256;10.978;2023-05-23T09:50:25;19.10;98.00
26575;DHT22;67165;50.256;10.978;2023-05-23T09:52:55;19.20;98.00
26575;DHT22;67165;50.256;10.978;2023-05-23T09:55:20;19.20;98.00
26575;DHT22;67165;50.256;10.978;2023-05-23T09:57:50;19.20;98.00
26575;DHT22;67165;50.256;10.978;2023-05-23T10:00:17;19.00;98.00
26575;DHT22;67165;50.256;10.978;2023-05-23T10:02:54;18.70;98.00
26575;DHT22;67165;50.256;10.978;2023-05-23T10:07:52;18.70;98.00
26575;DHT22;67165;50.256;10.978;2023-05-23T10:10:18;18.50;98.00
26575;DHT22;67165;50.256;10.978;2023-05-23T10:12:49;18.60;98.00
26575;DHT22;67165;50.256;10.978;2023-05-23T10:15:17;18.60;98.00
26575;DHT22;67165;50.256;10.978;2023-05-23T10:20:32;18.80;98.00
26575;DHT22;67165;50.256;10.978;2023-05-23T10:22:59;18.80;98.00
26575;DHT22;67165;50.256;10.978;2023-05-23T10:25:26;18.80;98.00
26575;DHT22;67165;50.256;10.978;2023-05-23T10:27:54;18.70;98.00
26575;DHT22;67165;50.256;10.978;2023-05-23T10:30:24;18.70;98.00
26575;DHT22;67165;50.256;10.978;2023-05-23T10:32:50;18.60;98.00
26575;DHT22;67165;50.256;10.978;2023-05-23T10:35:24;18.60;98.00
26575;DHT22;67165;50.256;10.978;2023-05-23T10:40:57;18.60;98.00
26575;DHT22;67165;50.256;10.978;2023-05-23T10:45:59;18.60;98.00
26575;DHT22;67165;50.256;10.978;2023-05-23T10:51:03;18.80;98.00
26575;DHT22;67165;50.256;10.978;2023-05-23T10:53:30;18.90;98.00
26575;DHT22;67165;50.256;10.978;2023-05-23T10:55:56;19.00;98.00
26575;DHT22;67165;50.256;10.978;2023-05-23T10:58:22;18.90;98.00
26575;DHT22;67165;50.256;10.978;2023-05-23T11:00:55;18.90;98.00
26575;DHT22;67165;50.256;10.978;2023-05-23T11:06:03;19.10;98.00
26575;DHT22;67165;50.256;10.978;2023-05-23T11:08:36;19.30;98.00
26575;DHT22;67165;50.256;10.978;2023-05-23T11:11:03;19.60;98.00
26575;DHT22;67165;50.256;10.978;2023-05-23T11:16:39;20.60;98.00
26575;DHT22;67165;50.256;10.978;2023-05-23T11:21:44;21.50;98.00
26575;DHT22;67165;50.256;10.978;2023-05-23T11:24:10;21.80;98.00
26575;DHT22;67165;50.256;10.978;2023-05-23T11:26:36;21.70;98.00
26575;DHT22;67165;50.256;10.978;2023-05-23T11:29:02;21.50;98.00
26575;DHT22;67165;50.256;10.978;2023-05-23T11:31:39;21.20;98.00
26575;DHT22;67165;50.256;10.978;2023-05-23T11:34:06;21.00;98.00
26575;DHT22;67165;50.256;10.978;2023-05-23T11:36:31;20.90;98.00
26575;DHT22;67165;50.256;10.978;2023-05-23T11:39:01;20.50;98.00
26575;DHT22;67165;50.256;10.978;2023-05-23T11:41:27;20.20;98.00
26575;DHT22;67165;50.256;10.978;2023-05-23T11:43:53;19.90;98.00
26575;DHT22;67165;50.256;10.978;2023-05-23T11:46:19;19.90;98.00
26575;DHT22;67165;50.256;10.978;2023-05-23T11:48:48;19.60;98.00
26575;DHT22;67165;50.256;10.978;2023-05-23T11:51:16;19.40;98.00
26575;DHT22;67165;50.256;10.978;2023-05-23T11:53:42;19.30;98.00
26575;DHT22;67165;50.256;10.978;2023-05-23T11:56:08;19.10;98.00
26575;DHT22;67165;50.256;10.978;2023-05-23T11:58:36;18.80;98.00
26575;DHT22;67165;50.256;10.978;2023-05-23T12:01:04;18.90;98.00
26575;DHT22;67165;50.256;10.978;2023-05-23T12:03:31;18.90;98.00
26575;DHT22;67165;50.256;10.978;2023-05-23T12:05:57;19.00;98.00
26575;DHT22;67165;50.256;10.978;2023-05-23T12:08:23;19.10;98.00
26575;DHT22;67165;50.256;10.978;2023-05-23T12:10:59;19.40;98.00
26575;DHT22;67165;50.256;10.978;2023-05-23T12:13:27;19.60;98.00
26575;DHT22;67165;50.256;10.978;2023-05-23T12:15:58;19.90;98.00
26575;DHT22;67165;50.256;10.978;2023-05-23T12:18:27;20.10;98.00
26575;DHT22;67165;50.256;10.978;2023-05-23T12:20:54;20.00;98.00
26575;DHT22;67165;50.256;10.978;2023-05-23T12:23:23;19.90;98.00
26575;DHT22;67165;50.256;10.978;2023-05-23T12:25:53;19.80;98.00
26575;DHT22;67165;50.256;10.978;2023-05-23T12:28:19;19.90;98.00
26575;DHT22;67165;50.256;10.978;2023-05-23T12:30:45;19.90;98.00
26575;DHT22;67165;50.256;10.978;2023-05-23T12:33:11;19.80;98.00
26575;DHT22;67165;50.256;10.978;2023-05-23T12:35:37;19.80;98.00
26575;DHT22;67165;50.256;10.978;2023-05-23T12:38:06;19.80;98.00
26575;DHT22;67165;50.256;10.978;2023-05-23T12:40:34;19.80;98.00
26575;DHT22;67165;50.256;10.978;2023-05-23T12:43:00;19.70;98.00
26575;DHT22;67165;50.256;10.978;2023-05-23T12:45:33;19.70;98.00
26575;DHT22;67165;50.256;10.978;2023-05-23T12:47:59;19.70;98.00
26575;DHT22;67165;50.256;10.978;2023-05-23T12:50:26;19.80;98.00
26575;DHT22;67165;50.256;10.978;2023-05-23T12:52:52;19.70;98.00
26575;DHT22;67165;50.256;10.978;2023-05-23T12:55:17;19.70;98.00
26575;DHT22;67165;50.256;10.978;2023-05-23T12:57:43;19.70;98.00
26575;DHT22;67165;50.256;10.978;2023-05-23T13:00:09;19.70;98.00
26575;DHT22;67165;50.256;10.978;2023-05-23T13:02:36;19.60;98.00
26575;DHT22;67165;50.256;10.978;2023-05-23T13:05:02;19.50;98.00
26575;DHT22;67165;50.256;10.978;2023-05-23T13:07:27;19.20;98.00
26575;DHT22;67165;50.256;10.978;2023-05-23T13:09:53;19.20;98.00
26575;DHT22;67165;50.256;10.978;2023-05-23T13:12:19;19.10;98.00
26575;DHT22;67165;50.256;10.978;2023-05-23T13:14:45;19.10;98.00
26575;DHT22;67165;50.256;10.978;2023-05-23T13:17:11;19.00;98.00
26575;DHT22;67165;50.256;10.978;2023-05-23T13:19:37;19.10;98.00
26575;DHT22;67165;50.256;10.978;2023-05-23T13:22:04;19.50;98.00
26575;DHT22;67165;50.256;10.978;2023-05-23T13:24:30;19.90;98.00
26575;DHT22;67165;50.256;10.978;2023-05-23T13:26:56;20.20;98.00
26575;DHT22;67165;50.256;10.978;2023-05-23T13:29:21;20.40;98.00
26575;DHT22;67165;50.256;10.978;2023-05-23T13:31:47;20.80;98.00
26575;DHT22;67165;50.256;10.978;2023-05-23T13:34:12;20.80;98.00
26575;DHT22;67165;50.256;10.978;2023-05-23T13:36:38;20.50;98.00
26575;DHT22;67165;50.256;10.978;2023-05-23T13:39:04;20.10;98.00
26575;DHT22;67165;50.256;10.978;2023-05-23T13:41:30;20.00;98.00
26575;DHT22;67165;50.256;10.978;2023-05-23T13:43:56;19.90;98.00
26575;DHT22;67165;50.256;10.978;2023-05-23T13:46:21;19.70;98.00
26575;DHT22;67165;50.256;10.978;2023-05-23T13:48:47;19.70;98.00
26575;DHT22;67165;50.256;10.978;2023-05-23T13:51:13;19.60;98.00
26575;DHT22;67165;50.256;10.978;2023-05-23T13:53:38;19.60;98.00
26575;DHT22;67165;50.256;10.978;2023-05-23T13:56:06;19.40;98.00
26575;DHT22;67165;50.256;10.978;2023-05-23T13:58:32;19.40;98.00
26575;DHT22;67165;50.256;10.978;2023-05-23T14:00:57;19.40;98.00
26575;DHT22;67165;50.256;10.978;2023-05-23T14:03:23;19.20;98.00
26575;DHT22;67165;50.256;10.978;2023-05-23T14:05:49;19.20;98.00
26575;DHT22;67165;50.256;10.978;2023-05-23T14:08:15;19.30;98.00
26575;DHT22;67165;50.256;10.978;2023-05-23T14:10:41;19.20;98.00
26575;DHT22;67165;50.256;10.978;2023-05-23T14:13:07;19.00;98.00
26575;DHT22;67165;50.256;10.978;2023-05-23T14:15:33;18.70;98.00
26575;DHT22;67165;50.256;10.978;2023-05-23T14:17:59;18.60;98.00
26575;DHT22;67165;50.256;10.978;2023-05-23T14:20:25;18.60;98.00
26575;DHT22;67165;50.256;10.978;2023-05-23T14:22:51;18.70;98.00
26575;DHT22;67165;50.256;10.978;2023-05-23T14:25:17;18.60;98.00
26575;DHT22;67165;50.256;10.978;2023-05-23T14:27:43;18.50;98.00
26575;DHT22;67165;50.256;10.978;2023-05-23T14:30:09;18.50;98.00
26575;DHT22;67165;50.256;10.978;2023-05-23T14:32:35;18.50;98.00
26575;DHT22;67165;50.256;10.978;2023-05-23T14:35:09;18.40;98.00
26575;DHT22;67165;50.256;10.978;2023-05-23T14:37:35;18.30;98.00
26575;DHT22;67165;50.256;10.978;2023-05-23T14:40:02;18.20;98.00
26575;DHT22;67165;50.256;10.978;2023-05-23T14:42:27;18.20;98.00
26575;DHT22;67165;50.256;10.978;2023-05-23T14:44:53;18.10;98.00
26575;DHT22;67165;50.256;10.978;2023-05-23T14:47:19;18.10;98.00
26575;DHT22;67165;50.256;10.978;2023-05-23T14:49:45;18.00;98.00
26575;DHT22;67165;50.256;10.978;2023-05-23T14:52:11;17.90;98.00
26575;DHT22;67165;50.256;10.978;2023-05-23T14:54:37;17.90;98.00
26575;DHT22;67165;50.256;10.978;2023-05-23T14:57:08;17.90;98.00
26575;DHT22;67165;50.256;10.978;2023-05-23T14:59:34;18.00;98.00
26575;DHT22;67165;50.256;10.978;2023-05-23T15:02:02;18.00;98.00
26575;DHT22;67165;50.256;10.978;2023-05-23T15:04:27;18.20;98.00
26575;DHT22;67165;50.256;10.978;2023-05-23T15:06:53;18.30;98.00
26575;DHT22;67165;50.256;10.978;2023-05-23T15:09:19;18.30;98.00
26575;DHT22;67165;50.256;10.978;2023-05-23T15:11:44;18.20;98.00
26575;DHT22;67165;50.256;10.978;2023-05-23T15:14:11;18.10;98.00
26575;DHT22;67165;50.256;10.978;2023-05-23T15:16:37;18.00;98.00
26575;DHT22;67165;50.256;10.978;2023-05-23T15:24:12;17.40;98.00
26575;DHT22;67165;50.256;10.978;2023-05-23T15:26:38;17.10;98.00
26575;DHT22;67165;50.256;10.978;2023-05-23T15:29:03;16.90;98.00
26575;DHT22;67165;50.256;10.978;2023-05-23T15:31:30;16.80;98.00
26575;DHT22;67165;50.256;10.978;2023-05-23T15:33:55;16.80;98.00
26575;DHT22;67165;50.256;10.978;2023-05-23T15:36:21;16.70;98.00
26575;DHT22;67165;50.256;10.978;2023-05-23T15:38:47;16.70;98.00
26575;DHT22;67165;50.256;10.978;2023-05-23T15:41:12;16.80;98.00
26575;DHT22;67165;50.256;10.978;2023-05-23T15:43:38;16.80;98.00
26575;DHT22;67165;50.256;10.978;2023-05-23T15:46:04;16.70;98.00
26575;DHT22;67165;50.256;10.978;2023-05-23T15:48:29;16.70;98.00